sensor_id;sensor_type;location;lat;lon;timestamp;P1;durP1;ratioP1;P2;durP2;ratioP2
305;SDS011;137;48.578;9.180;2022-12-18T00:01:57;28.67;;;15.13;;
305;SDS011;137;48.578;9.180;2022-12-18T00:04:25;36.28;;;17.15;;
305;SDS011;137;48.578;9.180;2022-12-18T00:06:53;28.08;;;16.30;;
305;SDS011;137;48.578;9.180;2022-12-18T00:09:20;20.50;;;13.98;;
305;SDS011;137;48.578;9.180;2022-12-18T00:11:47;27.52;;;14.02;;
305;SDS011;137;48.578;9.180;2022-12-18T00:14:15;35.17;;;15.20;;
305;SDS011;137;48.578;9.180;2022-12-18T00:16:45;31.35;;;17.23;;
305;SDS011;137;48.578;9.180;2022-12-18T00:19:12;25.65;;;15.57;;
305;SDS011;137;48.578;9.180;2022-12-18T00:21:40;29.63;;;14.32;;
305;SDS011;137;48.578;9.180;2022-12-18T00:24:08;24.73;;;14.35;;
305;SDS011;137;48.578;9.180;2022-12-18T00:26:36;29.00;;;17.38;;
305;SDS011;137;48.578;9.180;2022-12-18T00:29:05;26.15;;;13.95;;
305;SDS011;137;48.578;9.180;2022-12-18T00:31:35;29.80;;;15.55;;
305;SDS011;137;48.578;9.180;2022-12-18T00:34:03;24.70;;;14.75;;
305;SDS011;137;48.578;9.180;2022-12-18T00:36:30;26.85;;;16.38;;
305;SDS011;137;48.578;9.180;2022-12-18T00:38:59;22.02;;;13.77;;
305;SDS011;137;48.578;9.180;2022-12-18T00:41:29;33.15;;;18.52;;
305;SDS011;137;48.578;9.180;2022-12-18T00:44:14;25.20;;;16.38;;
305;SDS011;137;48.578;9.180;2022-12-18T00:46:44;22.75;;;13.65;;
305;SDS011;137;48.578;9.180;2022-12-18T00:49:11;23.40;;;15.65;;
305;SDS011;137;48.578;9.180;2022-12-18T00:51:38;25.73;;;16.35;;
305;SDS011;137;48.578;9.180;2022-12-18T00:54:05;25.42;;;15.10;;
305;SDS011;137;48.578;9.180;2022-12-18T00:56:32;23.17;;;13.63;;
305;SDS011;137;48.578;9.180;2022-12-18T00:59:00;20.58;;;12.55;;
305;SDS011;137;48.578;9.180;2022-12-18T01:01:27;25.90;;;13.90;;
305;SDS011;137;48.578;9.180;2022-12-18T01:03:55;28.67;;;14.70;;
305;SDS011;137;48.578;9.180;2022-12-18T01:06:22;21.85;;;13.95;;
305;SDS011;137;48.578;9.180;2022-12-18T01:08:49;21.92;;;13.77;;
305;SDS011;137;48.578;9.180;2022-12-18T01:11:17;22.15;;;14.38;;
305;SDS011;137;48.578;9.180;2022-12-18T01:13:45;24.35;;;13.75;;
305;SDS011;137;48.578;9.180;2022-12-18T01:16:13;26.35;;;13.73;;
305;SDS011;137;48.578;9.180;2022-12-18T01:18:41;21.77;;;12.85;;
305;SDS011;137;48.578;9.180;2022-12-18T01:21:09;21.13;;;12.48;;
305;SDS011;137;48.578;9.180;2022-12-18T01:23:37;29.77;;;14.10;;
305;SDS011;137;48.578;9.180;2022-12-18T01:26:05;20.42;;;11.35;;
305;SDS011;137;48.578;9.180;2022-12-18T01:28:33;17.40;;;12.13;;
305;SDS011;137;48.578;9.180;2022-12-18T01:31:09;21.45;;;13.68;;
305;SDS011;137;48.578;9.180;2022-12-18T01:33:37;22.45;;;13.88;;
305;SDS011;137;48.578;9.180;2022-12-18T01:36:04;27.45;;;12.13;;
305;SDS011;137;48.578;9.180;2022-12-18T01:38:32;17.85;;;12.40;;
305;SDS011;137;48.578;9.180;2022-12-18T01:40:59;19.88;;;10.68;;
305;SDS011;137;48.578;9.180;2022-12-18T01:43:46;26.40;;;14.63;;
305;SDS011;137;48.578;9.180;2022-12-18T01:46:16;31.60;;;16.20;;
305;SDS011;137;48.578;9.180;2022-12-18T01:48:44;26.77;;;14.63;;
305;SDS011;137;48.578;9.180;2022-12-18T01:51:13;22.83;;;12.70;;
305;SDS011;137;48.578;9.180;2022-12-18T01:53:55;23.73;;;12.98;;
305;SDS011;137;48.578;9.180;2022-12-18T01:56:22;27.77;;;14.52;;
305;SDS011;137;48.578;9.180;2022-12-18T01:58:51;27.58;;;15.68;;
305;SDS011;137;48.578;9.180;2022-12-18T02:01:23;24.80;;;14.00;;
305;SDS011;137;48.578;9.180;2022-12-18T02:03:50;23.15;;;12.82;;
305;SDS011;137;48.578;9.180;2022-12-18T02:06:19;28.05;;;13.05;;
305;SDS011;137;48.578;9.180;2022-12-18T02:08:57;23.48;;;13.05;;
305;SDS011;137;48.578;9.180;2022-12-18T02:11:32;21.77;;;14.20;;
305;SDS011;137;48.578;9.180;2022-12-18T02:14:16;18.48;;;12.32;;
305;SDS011;137;48.578;9.180;2022-12-18T02:16:50;18.00;;;12.82;;
305;SDS011;137;48.578;9.180;2022-12-18T02:19:27;23.48;;;12.65;;
305;SDS011;137;48.578;9.180;2022-12-18T02:22:11;23.35;;;13.88;;
305;SDS011;137;48.578;9.180;2022-12-18T02:24:54;24.20;;;13.50;;
305;SDS011;137;48.578;9.180;2022-12-18T02:27:32;28.33;;;14.82;;
305;SDS011;137;48.578;9.180;2022-12-18T02:30:01;25.20;;;15.27;;
305;SDS011;137;48.578;9.180;2022-12-18T02:32:30;21.27;;;11.75;;
305;SDS011;137;48.578;9.180;2022-12-18T02:35:00;25.40;;;13.57;;
305;SDS011;137;48.578;9.180;2022-12-18T02:37:29;26.20;;;13.20;;
305;SDS011;137;48.578;9.180;2022-12-18T02:39:58;22.58;;;13.82;;
305;SDS011;137;48.578;9.180;2022-12-18T02:42:25;28.75;;;12.93;;
305;SDS011;137;48.578;9.180;2022-12-18T02:44:55;19.98;;;12.43;;
305;SDS011;137;48.578;9.180;2022-12-18T02:47:23;18.38;;;11.40;;
305;SDS011;137;48.578;9.180;2022-12-18T02:49:54;21.33;;;13.27;;
305;SDS011;137;48.578;9.180;2022-12-18T02:52:29;30.23;;;12.18;;
305;SDS011;137;48.578;9.180;2022-12-18T02:55:04;29.70;;;15.68;;
305;SDS011;137;48.578;9.180;2022-12-18T02:57:40;29.90;;;14.02;;
305;SDS011;137;48.578;9.180;2022-12-18T03:00:14;23.38;;;12.82;;
305;SDS011;137;48.578;9.180;2022-12-18T03:02:45;26.92;;;13.77;;
305;SDS011;137;48.578;9.180;2022-12-18T03:05:15;19.75;;;12.05;;
305;SDS011;137;48.578;9.180;2022-12-18T03:07:50;17.30;;;11.48;;
305;SDS011;137;48.578;9.180;2022-12-18T03:10:25;21.85;;;12.93;;
305;SDS011;137;48.578;9.180;2022-12-18T03:12:54;18.52;;;11.48;;
305;SDS011;137;48.578;9.180;2022-12-18T03:15:29;17.40;;;11.55;;
305;SDS011;137;48.578;9.180;2022-12-18T03:18:01;21.17;;;13.68;;
305;SDS011;137;48.578;9.180;2022-12-18T03:20:34;25.60;;;13.95;;
305;SDS011;137;48.578;9.180;2022-12-18T03:23:04;24.30;;;13.45;;
305;SDS011;137;48.578;9.180;2022-12-18T03:25:34;18.80;;;13.35;;
305;SDS011;137;48.578;9.180;2022-12-18T03:28:07;24.45;;;13.55;;
305;SDS011;137;48.578;9.180;2022-12-18T03:30:40;20.52;;;13.90;;
305;SDS011;137;48.578;9.180;2022-12-18T03:33:10;18.88;;;10.82;;
305;SDS011;137;48.578;9.180;2022-12-18T03:35:43;20.92;;;12.70;;
305;SDS011;137;48.578;9.180;2022-12-18T03:38:10;21.52;;;13.20;;
305;SDS011;137;48.578;9.180;2022-12-18T03:40:40;25.25;;;12.73;;
305;SDS011;137;48.578;9.180;2022-12-18T03:43:16;22.42;;;13.68;;
305;SDS011;137;48.578;9.180;2022-12-18T03:45:50;24.05;;;12.98;;
305;SDS011;137;48.578;9.180;2022-12-18T03:48:26;24.58;;;12.23;;
305;SDS011;137;48.578;9.180;2022-12-18T03:50:57;22.02;;;13.10;;
305;SDS011;137;48.578;9.180;2022-12-18T03:53:28;20.73;;;13.48;;
305;SDS011;137;48.578;9.180;2022-12-18T03:56:03;17.63;;;11.93;;
305;SDS011;137;48.578;9.180;2022-12-18T03:58:31;23.30;;;13.70;;
305;SDS011;137;48.578;9.180;2022-12-18T04:01:02;24.70;;;13.45;;
305;SDS011;137;48.578;9.180;2022-12-18T04:03:32;19.70;;;12.77;;
305;SDS011;137;48.578;9.180;2022-12-18T04:06:01;24.90;;;14.02;;
305;SDS011;137;48.578;9.180;2022-12-18T04:08:29;24.30;;;15.00;;
305;SDS011;137;48.578;9.180;2022-12-18T04:10:56;24.38;;;13.70;;
305;SDS011;137;48.578;9.180;2022-12-18T04:13:23;23.00;;;12.27;;
305;SDS011;137;48.578;9.180;2022-12-18T04:15:50;18.58;;;11.27;;
305;SDS011;137;48.578;9.180;2022-12-18T04:18:19;15.07;;;10.02;;
305;SDS011;137;48.578;9.180;2022-12-18T04:20:46;24.83;;;13.60;;
305;SDS011;137;48.578;9.180;2022-12-18T04:23:13;19.45;;;12.88;;
305;SDS011;137;48.578;9.180;2022-12-18T04:25:40;19.25;;;11.88;;
305;SDS011;137;48.578;9.180;2022-12-18T04:28:07;23.23;;;11.98;;
305;SDS011;137;48.578;9.180;2022-12-18T04:30:33;24.90;;;12.55;;
305;SDS011;137;48.578;9.180;2022-12-18T04:33:00;31.58;;;15.25;;
305;SDS011;137;48.578;9.180;2022-12-18T04:35:29;21.63;;;14.15;;
305;SDS011;137;48.578;9.180;2022-12-18T04:37:56;23.17;;;12.90;;
305;SDS011;137;48.578;9.180;2022-12-18T04:40:22;22.38;;;13.88;;
305;SDS011;137;48.578;9.180;2022-12-18T04:42:49;17.67;;;12.63;;
305;SDS011;137;48.578;9.180;2022-12-18T04:45:17;25.05;;;14.38;;
305;SDS011;137;48.578;9.180;2022-12-18T04:47:43;21.17;;;11.57;;
305;SDS011;137;48.578;9.180;2022-12-18T04:50:10;22.83;;;13.65;;
305;SDS011;137;48.578;9.180;2022-12-18T04:52:38;22.70;;;13.50;;
305;SDS011;137;48.578;9.180;2022-12-18T04:55:05;22.95;;;12.20;;
305;SDS011;137;48.578;9.180;2022-12-18T04:57:32;21.05;;;14.02;;
305;SDS011;137;48.578;9.180;2022-12-18T04:59:59;26.27;;;12.88;;
305;SDS011;137;48.578;9.180;2022-12-18T05:02:26;23.15;;;11.95;;
305;SDS011;137;48.578;9.180;2022-12-18T05:04:53;15.73;;;10.50;;
305;SDS011;137;48.578;9.180;2022-12-18T05:07:20;18.45;;;10.82;;
305;SDS011;137;48.578;9.180;2022-12-18T05:09:48;26.05;;;11.82;;
305;SDS011;137;48.578;9.180;2022-12-18T05:12:14;19.50;;;11.90;;
305;SDS011;137;48.578;9.180;2022-12-18T05:14:41;20.60;;;12.32;;
305;SDS011;137;48.578;9.180;2022-12-18T05:17:08;23.42;;;14.02;;
305;SDS011;137;48.578;9.180;2022-12-18T05:19:35;20.50;;;12.02;;
305;SDS011;137;48.578;9.180;2022-12-18T05:22:02;21.15;;;13.93;;
305;SDS011;137;48.578;9.180;2022-12-18T05:24:29;22.52;;;13.85;;
305;SDS011;137;48.578;9.180;2022-12-18T05:26:57;23.90;;;14.05;;
305;SDS011;137;48.578;9.180;2022-12-18T05:29:24;13.95;;;10.35;;
305;SDS011;137;48.578;9.180;2022-12-18T05:31:51;21.52;;;12.23;;
305;SDS011;137;48.578;9.180;2022-12-18T05:34:18;22.88;;;13.82;;
305;SDS011;137;48.578;9.180;2022-12-18T05:36:44;27.50;;;15.85;;
305;SDS011;137;48.578;9.180;2022-12-18T05:39:11;21.25;;;12.20;;
305;SDS011;137;48.578;9.180;2022-12-18T05:41:38;20.70;;;13.77;;
305;SDS011;137;48.578;9.180;2022-12-18T05:44:06;18.90;;;11.95;;
305;SDS011;137;48.578;9.180;2022-12-18T05:46:33;17.85;;;11.85;;
305;SDS011;137;48.578;9.180;2022-12-18T05:49:00;25.80;;;13.30;;
305;SDS011;137;48.578;9.180;2022-12-18T05:51:27;25.55;;;12.20;;
305;SDS011;137;48.578;9.180;2022-12-18T05:53:53;25.58;;;13.55;;
305;SDS011;137;48.578;9.180;2022-12-18T05:56:21;20.42;;;14.45;;
305;SDS011;137;48.578;9.180;2022-12-18T05:58:50;18.90;;;13.45;;
305;SDS011;137;48.578;9.180;2022-12-18T06:01:21;25.75;;;14.32;;
305;SDS011;137;48.578;9.180;2022-12-18T06:03:49;18.67;;;10.90;;
305;SDS011;137;48.578;9.180;2022-12-18T06:06:16;32.20;;;13.80;;
305;SDS011;137;48.578;9.180;2022-12-18T06:08:44;22.52;;;11.02;;
305;SDS011;137;48.578;9.180;2022-12-18T06:11:12;20.75;;;12.52;;
305;SDS011;137;48.578;9.180;2022-12-18T06:13:39;22.13;;;11.35;;
305;SDS011;137;48.578;9.180;2022-12-18T06:16:06;15.27;;;11.88;;
305;SDS011;137;48.578;9.180;2022-12-18T06:18:34;21.08;;;12.38;;
305;SDS011;137;48.578;9.180;2022-12-18T06:21:01;18.67;;;12.02;;
305;SDS011;137;48.578;9.180;2022-12-18T06:23:28;20.55;;;11.25;;
305;SDS011;137;48.578;9.180;2022-12-18T06:25:55;20.35;;;11.38;;
305;SDS011;137;48.578;9.180;2022-12-18T06:28:21;23.50;;;11.90;;
305;SDS011;137;48.578;9.180;2022-12-18T06:30:49;19.20;;;13.00;;
305;SDS011;137;48.578;9.180;2022-12-18T06:33:16;18.52;;;12.80;;
305;SDS011;137;48.578;9.180;2022-12-18T06:35:44;17.27;;;11.90;;
305;SDS011;137;48.578;9.180;2022-12-18T06:38:11;16.67;;;11.45;;
305;SDS011;137;48.578;9.180;2022-12-18T06:40:38;19.33;;;11.55;;
305;SDS011;137;48.578;9.180;2022-12-18T06:43:05;18.63;;;12.45;;
305;SDS011;137;48.578;9.180;2022-12-18T06:45:32;18.42;;;10.98;;
305;SDS011;137;48.578;9.180;2022-12-18T06:47:59;18.38;;;10.85;;
305;SDS011;137;48.578;9.180;2022-12-18T06:50:26;21.70;;;12.45;;
305;SDS011;137;48.578;9.180;2022-12-18T06:52:54;25.55;;;13.75;;
305;SDS011;137;48.578;9.180;2022-12-18T06:55:21;16.98;;;11.88;;
305;SDS011;137;48.578;9.180;2022-12-18T06:57:48;26.75;;;13.20;;
305;SDS011;137;48.578;9.180;2022-12-18T07:00:15;24.70;;;12.55;;
305;SDS011;137;48.578;9.180;2022-12-18T07:02:42;22.05;;;12.93;;
305;SDS011;137;48.578;9.180;2022-12-18T07:05:08;31.13;;;17.17;;
305;SDS011;137;48.578;9.180;2022-12-18T07:07:35;38.28;;;18.50;;
305;SDS011;137;48.578;9.180;2022-12-18T07:10:04;27.10;;;15.90;;
305;SDS011;137;48.578;9.180;2022-12-18T07:12:31;34.88;;;19.88;;
305;SDS011;137;48.578;9.180;2022-12-18T07:14:58;35.47;;;20.60;;
305;SDS011;137;48.578;9.180;2022-12-18T07:17:24;32.65;;;16.80;;
305;SDS011;137;48.578;9.180;2022-12-18T07:19:51;26.52;;;14.40;;
305;SDS011;137;48.578;9.180;2022-12-18T07:22:18;22.98;;;15.52;;
305;SDS011;137;48.578;9.180;2022-12-18T07:24:45;23.92;;;13.43;;
305;SDS011;137;48.578;9.180;2022-12-18T07:27:13;20.60;;;12.70;;
305;SDS011;137;48.578;9.180;2022-12-18T07:29:40;24.83;;;14.98;;
305;SDS011;137;48.578;9.180;2022-12-18T07:32:06;20.70;;;13.10;;
305;SDS011;137;48.578;9.180;2022-12-18T07:34:33;20.55;;;13.88;;
305;SDS011;137;48.578;9.180;2022-12-18T07:37:00;24.20;;;13.75;;
305;SDS011;137;48.578;9.180;2022-12-18T07:39:27;28.85;;;15.80;;
305;SDS011;137;48.578;9.180;2022-12-18T07:41:54;31.08;;;16.23;;
305;SDS011;137;48.578;9.180;2022-12-18T07:44:39;20.50;;;15.30;;
305;SDS011;137;48.578;9.180;2022-12-18T07:47:06;36.92;;;24.50;;
305;SDS011;137;48.578;9.180;2022-12-18T07:49:33;37.05;;;22.27;;
305;SDS011;137;48.578;9.180;2022-12-18T07:52:00;34.53;;;25.40;;
305;SDS011;137;48.578;9.180;2022-12-18T07:54:27;31.35;;;19.38;;
305;SDS011;137;48.578;9.180;2022-12-18T07:56:54;24.52;;;19.95;;
305;SDS011;137;48.578;9.180;2022-12-18T07:59:21;28.23;;;15.32;;
305;SDS011;137;48.578;9.180;2022-12-18T08:01:49;20.95;;;15.45;;
305;SDS011;137;48.578;9.180;2022-12-18T08:04:16;23.27;;;15.13;;
305;SDS011;137;48.578;9.180;2022-12-18T08:06:42;22.10;;;14.07;;
305;SDS011;137;48.578;9.180;2022-12-18T08:09:09;26.58;;;17.05;;
305;SDS011;137;48.578;9.180;2022-12-18T08:11:36;25.55;;;17.48;;
305;SDS011;137;48.578;9.180;2022-12-18T08:14:03;26.10;;;15.95;;
305;SDS011;137;48.578;9.180;2022-12-18T08:16:30;26.05;;;16.23;;
305;SDS011;137;48.578;9.180;2022-12-18T08:18:58;29.63;;;17.52;;
305;SDS011;137;48.578;9.180;2022-12-18T08:21:26;26.42;;;17.50;;
305;SDS011;137;48.578;9.180;2022-12-18T08:23:54;26.45;;;16.98;;
305;SDS011;137;48.578;9.180;2022-12-18T08:26:23;30.65;;;19.67;;
305;SDS011;137;48.578;9.180;2022-12-18T08:31:48;42.42;;;20.73;;
305;SDS011;137;48.578;9.180;2022-12-18T08:34:16;33.22;;;21.60;;
305;SDS011;137;48.578;9.180;2022-12-18T08:36:43;40.97;;;22.98;;
305;SDS011;137;48.578;9.180;2022-12-18T08:39:11;29.58;;;20.77;;
305;SDS011;137;48.578;9.180;2022-12-18T08:41:39;37.22;;;24.10;;
305;SDS011;137;48.578;9.180;2022-12-18T08:44:06;40.50;;;24.15;;
305;SDS011;137;48.578;9.180;2022-12-18T08:46:51;37.13;;;21.30;;
305;SDS011;137;48.578;9.180;2022-12-18T08:49:19;33.65;;;16.92;;
305;SDS011;137;48.578;9.180;2022-12-18T08:51:46;25.10;;;15.90;;
305;SDS011;137;48.578;9.180;2022-12-18T08:54:12;37.50;;;19.60;;
305;SDS011;137;48.578;9.180;2022-12-18T08:56:39;36.17;;;19.60;;
305;SDS011;137;48.578;9.180;2022-12-18T08:59:06;36.63;;;21.70;;
305;SDS011;137;48.578;9.180;2022-12-18T09:01:33;41.72;;;21.40;;
305;SDS011;137;48.578;9.180;2022-12-18T09:03:59;37.25;;;21.67;;
305;SDS011;137;48.578;9.180;2022-12-18T09:06:27;42.80;;;21.00;;
305;SDS011;137;48.578;9.180;2022-12-18T09:08:54;31.73;;;19.75;;
305;SDS011;137;48.578;9.180;2022-12-18T09:11:22;34.58;;;21.05;;
305;SDS011;137;48.578;9.180;2022-12-18T09:13:50;41.53;;;28.38;;
305;SDS011;137;48.578;9.180;2022-12-18T09:16:17;32.15;;;21.77;;
305;SDS011;137;48.578;9.180;2022-12-18T09:18:45;26.63;;;18.80;;
305;SDS011;137;48.578;9.180;2022-12-18T09:21:13;27.00;;;18.30;;
305;SDS011;137;48.578;9.180;2022-12-18T09:23:43;33.78;;;19.23;;
305;SDS011;137;48.578;9.180;2022-12-18T09:26:10;37.92;;;20.98;;
305;SDS011;137;48.578;9.180;2022-12-18T09:28:36;30.05;;;18.85;;
305;SDS011;137;48.578;9.180;2022-12-18T09:31:04;31.45;;;18.50;;
305;SDS011;137;48.578;9.180;2022-12-18T09:33:33;32.60;;;20.58;;
305;SDS011;137;48.578;9.180;2022-12-18T09:36:01;30.77;;;20.65;;
305;SDS011;137;48.578;9.180;2022-12-18T09:38:30;36.10;;;22.13;;
305;SDS011;137;48.578;9.180;2022-12-18T09:40:59;32.83;;;19.30;;
305;SDS011;137;48.578;9.180;2022-12-18T09:43:30;39.95;;;20.30;;
305;SDS011;137;48.578;9.180;2022-12-18T09:46:06;33.22;;;20.77;;
305;SDS011;137;48.578;9.180;2022-12-18T09:48:36;28.53;;;20.07;;
305;SDS011;137;48.578;9.180;2022-12-18T09:51:09;38.33;;;19.70;;
305;SDS011;137;48.578;9.180;2022-12-18T09:53:41;28.30;;;17.93;;
305;SDS011;137;48.578;9.180;2022-12-18T09:56:16;38.77;;;21.10;;
305;SDS011;137;48.578;9.180;2022-12-18T09:58:49;27.53;;;17.80;;
305;SDS011;137;48.578;9.180;2022-12-18T10:01:21;30.57;;;20.03;;
305;SDS011;137;48.578;9.180;2022-12-18T10:03:49;25.17;;;17.07;;
305;SDS011;137;48.578;9.180;2022-12-18T10:06:18;32.17;;;21.83;;
305;SDS011;137;48.578;9.180;2022-12-18T10:08:51;32.23;;;21.07;;
305;SDS011;137;48.578;9.180;2022-12-18T10:11:32;33.57;;;19.90;;
305;SDS011;137;48.578;9.180;2022-12-18T10:14:08;35.47;;;19.93;;
305;SDS011;137;48.578;9.180;2022-12-18T10:16:42;30.07;;;19.53;;
305;SDS011;137;48.578;9.180;2022-12-18T10:19:20;23.57;;;13.67;;
305;SDS011;137;48.578;9.180;2022-12-18T10:21:57;23.67;;;14.83;;
305;SDS011;137;48.578;9.180;2022-12-18T10:24:32;27.53;;;16.90;;
305;SDS011;137;48.578;9.180;2022-12-18T10:27:11;22.67;;;13.87;;
305;SDS011;137;48.578;9.180;2022-12-18T10:29:40;29.07;;;16.50;;
305;SDS011;137;48.578;9.180;2022-12-18T10:32:09;29.70;;;16.87;;
305;SDS011;137;48.578;9.180;2022-12-18T10:34:40;22.80;;;13.80;;
305;SDS011;137;48.578;9.180;2022-12-18T10:37:09;29.00;;;16.57;;
305;SDS011;137;48.578;9.180;2022-12-18T10:39:42;20.60;;;13.67;;
305;SDS011;137;48.578;9.180;2022-12-18T10:42:11;29.27;;;16.40;;
305;SDS011;137;48.578;9.180;2022-12-18T10:44:42;24.17;;;14.77;;
305;SDS011;137;48.578;9.180;2022-12-18T10:47:11;27.63;;;15.20;;
305;SDS011;137;48.578;9.180;2022-12-18T10:49:42;31.30;;;16.33;;
305;SDS011;137;48.578;9.180;2022-12-18T10:52:14;22.83;;;14.10;;
305;SDS011;137;48.578;9.180;2022-12-18T10:54:48;24.50;;;16.00;;
305;SDS011;137;48.578;9.180;2022-12-18T10:57:28;27.40;;;18.30;;
305;SDS011;137;48.578;9.180;2022-12-18T10:59:58;24.90;;;16.60;;
305;SDS011;137;48.578;9.180;2022-12-18T11:02:28;25.33;;;16.20;;
305;SDS011;137;48.578;9.180;2022-12-18T11:05:01;31.25;;;20.17;;
305;SDS011;137;48.578;9.180;2022-12-18T11:07:40;27.90;;;17.43;;
305;SDS011;137;48.578;9.180;2022-12-18T11:10:15;30.57;;;15.57;;
305;SDS011;137;48.578;9.180;2022-12-18T11:12:46;28.20;;;16.17;;
305;SDS011;137;48.578;9.180;2022-12-18T11:15:16;21.93;;;14.27;;
305;SDS011;137;48.578;9.180;2022-12-18T11:17:47;26.93;;;16.43;;
305;SDS011;137;48.578;9.180;2022-12-18T11:20:25;26.77;;;16.60;;
305;SDS011;137;48.578;9.180;2022-12-18T11:22:58;25.83;;;17.30;;
305;SDS011;137;48.578;9.180;2022-12-18T11:25:29;33.50;;;17.57;;
305;SDS011;137;48.578;9.180;2022-12-18T11:27:59;21.90;;;14.20;;
305;SDS011;137;48.578;9.180;2022-12-18T11:30:28;23.77;;;17.67;;
305;SDS011;137;48.578;9.180;2022-12-18T11:32:57;24.53;;;17.13;;
305;SDS011;137;48.578;9.180;2022-12-18T11:35:34;30.60;;;18.00;;
305;SDS011;137;48.578;9.180;2022-12-18T11:38:06;23.87;;;15.20;;
305;SDS011;137;48.578;9.180;2022-12-18T11:40:43;23.17;;;15.23;;
305;SDS011;137;48.578;9.180;2022-12-18T11:43:15;27.00;;;17.33;;
305;SDS011;137;48.578;9.180;2022-12-18T11:45:49;26.43;;;16.43;;
305;SDS011;137;48.578;9.180;2022-12-18T11:48:21;26.47;;;17.20;;
305;SDS011;137;48.578;9.180;2022-12-18T11:50:52;25.77;;;15.77;;
305;SDS011;137;48.578;9.180;2022-12-18T11:53:20;23.67;;;15.27;;
305;SDS011;137;48.578;9.180;2022-12-18T11:55:49;21.17;;;13.43;;
305;SDS011;137;48.578;9.180;2022-12-18T11:58:29;23.00;;;15.63;;
305;SDS011;137;48.578;9.180;2022-12-18T12:01:07;26.83;;;15.40;;
305;SDS011;137;48.578;9.180;2022-12-18T12:06:39;30.37;;;17.47;;
305;SDS011;137;48.578;9.180;2022-12-18T12:09:15;27.27;;;16.40;;
305;SDS011;137;48.578;9.180;2022-12-18T12:11:53;24.70;;;15.70;;
305;SDS011;137;48.578;9.180;2022-12-18T12:14:30;29.07;;;18.13;;
305;SDS011;137;48.578;9.180;2022-12-18T12:17:11;23.90;;;15.40;;
305;SDS011;137;48.578;9.180;2022-12-18T12:19:49;24.50;;;13.87;;
305;SDS011;137;48.578;9.180;2022-12-18T12:22:24;23.77;;;14.33;;
305;SDS011;137;48.578;9.180;2022-12-18T12:24:59;23.53;;;15.63;;
305;SDS011;137;48.578;9.180;2022-12-18T12:27:41;25.97;;;15.90;;
305;SDS011;137;48.578;9.180;2022-12-18T12:30:18;28.67;;;15.97;;
305;SDS011;137;48.578;9.180;2022-12-18T12:32:54;25.43;;;16.23;;
305;SDS011;137;48.578;9.180;2022-12-18T12:35:32;26.17;;;15.90;;
305;SDS011;137;48.578;9.180;2022-12-18T12:38:09;37.83;;;18.10;;
305;SDS011;137;48.578;9.180;2022-12-18T12:40:41;21.00;;;13.90;;
305;SDS011;137;48.578;9.180;2022-12-18T12:43:15;24.07;;;15.20;;
305;SDS011;137;48.578;9.180;2022-12-18T12:45:50;26.47;;;15.67;;
305;SDS011;137;48.578;9.180;2022-12-18T12:48:23;24.90;;;15.30;;
305;SDS011;137;48.578;9.180;2022-12-18T12:51:00;26.07;;;17.37;;
305;SDS011;137;48.578;9.180;2022-12-18T12:53:30;25.93;;;14.70;;
305;SDS011;137;48.578;9.180;2022-12-18T12:56:01;23.03;;;13.97;;
305;SDS011;137;48.578;9.180;2022-12-18T12:58:31;30.13;;;14.87;;
305;SDS011;137;48.578;9.180;2022-12-18T13:01:08;27.97;;;15.90;;
305;SDS011;137;48.578;9.180;2022-12-18T13:03:43;27.47;;;16.93;;
305;SDS011;137;48.578;9.180;2022-12-18T13:06:19;24.27;;;16.33;;
305;SDS011;137;48.578;9.180;2022-12-18T13:08:59;28.97;;;17.00;;
305;SDS011;137;48.578;9.180;2022-12-18T13:11:30;23.50;;;15.87;;
305;SDS011;137;48.578;9.180;2022-12-18T13:14:21;25.33;;;14.97;;
305;SDS011;137;48.578;9.180;2022-12-18T13:16:51;24.50;;;16.53;;
305;SDS011;137;48.578;9.180;2022-12-18T13:19:38;30.70;;;16.17;;
305;SDS011;137;48.578;9.180;2022-12-18T13:22:10;27.23;;;15.60;;
305;SDS011;137;48.578;9.180;2022-12-18T13:24:47;25.50;;;16.03;;
305;SDS011;137;48.578;9.180;2022-12-18T13:39:15;27.37;;;17.70;;
305;SDS011;137;48.578;9.180;2022-12-18T13:45:35;18.20;;;13.67;;
305;SDS011;137;48.578;9.180;2022-12-18T13:48:18;21.97;;;15.73;;
305;SDS011;137;48.578;9.180;2022-12-18T13:50:50;28.83;;;16.60;;
305;SDS011;137;48.578;9.180;2022-12-18T13:53:22;29.90;;;23.70;;
305;SDS011;137;48.578;9.180;2022-12-18T13:55:53;29.27;;;17.97;;
305;SDS011;137;48.578;9.180;2022-12-18T13:58:20;28.20;;;18.50;;
305;SDS011;137;48.578;9.180;2022-12-18T14:00:47;31.30;;;19.87;;
305;SDS011;137;48.578;9.180;2022-12-18T14:03:18;29.27;;;17.53;;
305;SDS011;137;48.578;9.180;2022-12-18T14:05:46;26.60;;;17.37;;
305;SDS011;137;48.578;9.180;2022-12-18T14:08:30;24.57;;;15.60;;
305;SDS011;137;48.578;9.180;2022-12-18T14:11:01;24.17;;;18.00;;
305;SDS011;137;48.578;9.180;2022-12-18T14:13:32;30.93;;;16.80;;
305;SDS011;137;48.578;9.180;2022-12-18T14:16:01;26.97;;;15.47;;
305;SDS011;137;48.578;9.180;2022-12-18T14:18:33;27.40;;;17.73;;
305;SDS011;137;48.578;9.180;2022-12-18T14:21:15;28.67;;;16.67;;
305;SDS011;137;48.578;9.180;2022-12-18T14:23:45;29.07;;;17.33;;
305;SDS011;137;48.578;9.180;2022-12-18T14:26:22;32.00;;;18.03;;
305;SDS011;137;48.578;9.180;2022-12-18T14:28:53;28.20;;;19.20;;
305;SDS011;137;48.578;9.180;2022-12-18T14:31:21;35.53;;;21.87;;
305;SDS011;137;48.578;9.180;2022-12-18T14:33:49;34.60;;;20.93;;
305;SDS011;137;48.578;9.180;2022-12-18T14:36:18;33.50;;;20.73;;
305;SDS011;137;48.578;9.180;2022-12-18T14:38:48;31.57;;;20.10;;
305;SDS011;137;48.578;9.180;2022-12-18T14:41:16;32.63;;;21.77;;
305;SDS011;137;48.578;9.180;2022-12-18T14:43:45;27.30;;;20.00;;
305;SDS011;137;48.578;9.180;2022-12-18T14:46:25;28.77;;;19.30;;
305;SDS011;137;48.578;9.180;2022-12-18T14:48:55;31.33;;;19.93;;
305;SDS011;137;48.578;9.180;2022-12-18T14:51:27;31.23;;;23.20;;
305;SDS011;137;48.578;9.180;2022-12-18T14:53:56;40.43;;;25.33;;
305;SDS011;137;48.578;9.180;2022-12-18T14:56:26;34.60;;;23.70;;
305;SDS011;137;48.578;9.180;2022-12-18T14:58:54;33.17;;;21.07;;
305;SDS011;137;48.578;9.180;2022-12-18T15:01:24;29.23;;;20.00;;
305;SDS011;137;48.578;9.180;2022-12-18T15:03:53;35.83;;;21.50;;
305;SDS011;137;48.578;9.180;2022-12-18T15:06:26;37.63;;;22.23;;
305;SDS011;137;48.578;9.180;2022-12-18T15:08:57;30.73;;;21.23;;
305;SDS011;137;48.578;9.180;2022-12-18T15:11:35;30.77;;;21.20;;
305;SDS011;137;48.578;9.180;2022-12-18T15:14:23;35.03;;;21.50;;
305;SDS011;137;48.578;9.180;2022-12-18T15:16:56;34.33;;;22.10;;
305;SDS011;137;48.578;9.180;2022-12-18T15:19:28;35.97;;;22.77;;
305;SDS011;137;48.578;9.180;2022-12-18T15:22:02;29.53;;;18.90;;
305;SDS011;137;48.578;9.180;2022-12-18T15:24:30;34.87;;;22.40;;
305;SDS011;137;48.578;9.180;2022-12-18T15:26:58;31.57;;;19.03;;
305;SDS011;137;48.578;9.180;2022-12-18T15:29:24;33.93;;;21.90;;
305;SDS011;137;48.578;9.180;2022-12-18T15:32:01;32.17;;;18.70;;
305;SDS011;137;48.578;9.180;2022-12-18T15:34:29;33.43;;;20.40;;
305;SDS011;137;48.578;9.180;2022-12-18T15:36:57;36.97;;;20.13;;
305;SDS011;137;48.578;9.180;2022-12-18T15:39:25;30.17;;;19.80;;
305;SDS011;137;48.578;9.180;2022-12-18T15:41:52;34.90;;;21.37;;
305;SDS011;137;48.578;9.180;2022-12-18T15:44:36;30.50;;;20.90;;
305;SDS011;137;48.578;9.180;2022-12-18T15:47:07;26.80;;;19.60;;
305;SDS011;137;48.578;9.180;2022-12-18T15:49:37;36.20;;;20.30;;
305;SDS011;137;48.578;9.180;2022-12-18T15:52:04;29.13;;;18.97;;
305;SDS011;137;48.578;9.180;2022-12-18T15:54:33;27.93;;;18.60;;
305;SDS011;137;48.578;9.180;2022-12-18T15:57:17;31.00;;;20.60;;